createdAt,value
2018-09-17T00:00:09.535Z,11.7
2018-09-17T00:00:59.612Z,11.6
2018-09-17T00:01:49.971Z,11.6
2018-09-17T00:02:39.764Z,11.6
2018-09-17T00:03:29.780Z,11.6
2018-09-17T00:04:19.570Z,11.6
2018-09-17T00:05:09.932Z,11.6
2018-09-17T00:05:59.985Z,11.6
2018-09-17T00:06:50.333Z,11.6
2018-09-17T00:07:40.405Z,11.5
2018-09-17T00:08:30.457Z,11.5
2018-09-17T00:09:20.535Z,11.5
2018-09-17T00:10:10.385Z,11.5
2018-09-17T00:11:00.348Z,11.5
2018-09-17T00:11:50.419Z,11.5
2018-09-17T00:12:40.482Z,11.4
2018-09-17T00:13:30.840Z,11.4
2018-09-17T00:14:20.613Z,11.4
2018-09-17T00:15:11.517Z,11.4
2018-09-17T00:16:00.722Z,11.4
2018-09-17T00:16:51.079Z,11.4
2018-09-17T00:17:40.889Z,11.4
2018-09-17T00:18:31.212Z,11.4
2018-09-17T00:19:20.969Z,11.4
2018-09-17T00:20:11.029Z,11.4
2018-09-17T00:21:01.387Z,11.4
2018-09-17T00:21:51.462Z,11.4
2018-09-17T00:22:41.496Z,11.4
2018-09-17T00:23:31.566Z,11.4
2018-09-17T00:24:21.646Z,11.4
2018-09-17T00:25:11.403Z,11.4
2018-09-17T00:26:01.468Z,11.4
2018-09-17T00:26:51.546Z,11.4
2018-09-17T00:27:41.878Z,11.4
2018-09-17T00:28:31.994Z,11.4
2018-09-17T00:29:22.123Z,11.3
2018-09-17T00:30:11.806Z,11.4
2018-09-17T00:31:02.149Z,11.3
2018-09-17T00:31:51.617Z,11.3
2018-09-17T00:32:42.250Z,11.3
2018-09-17T00:33:32.040Z,11.3
2018-09-17T00:34:22.172Z,11.3
2018-09-17T00:35:12.463Z,11.3
2018-09-17T00:36:02.238Z,11.3
2018-09-17T00:36:52.574Z,11.3
2018-09-17T00:56:26.874Z,11
2018-09-17T00:57:16.431Z,11
2018-09-17T00:58:06.786Z,11
2018-09-17T00:58:56.848Z,11
2018-09-17T00:59:47.218Z,11
2018-09-17T01:00:37.261Z,10.9
2018-09-17T01:01:27.569Z,11
2018-09-17T01:02:17.361Z,10.9
2018-09-17T01:03:06.847Z,10.9
2018-09-17T01:03:57.486Z,10.9
2018-09-17T01:04:47.576Z,10.9
2018-09-17T01:05:37.332Z,10.9
2018-09-17T01:06:27.928Z,10.9
2018-09-17T01:07:17.447Z,10.9
2018-09-17T01:08:08.095Z,10.9
2018-09-17T01:08:57.867Z,10.9
2018-09-17T01:09:47.340Z,10.9
2018-09-17T01:10:37.993Z,10.8
2018-09-17T01:11:28.040Z,10.8
2018-09-17T01:12:18.121Z,10.8
2018-09-17T01:13:08.173Z,10.8
2018-09-17T01:13:57.370Z,10.8
2018-09-17T01:14:48.283Z,10.8
2018-09-17T01:15:38.058Z,10.8
2018-09-17T01:16:27.830Z,10.8
2018-09-17T01:17:18.493Z,10.8
2018-09-17T01:18:08.785Z,10.8
2018-09-17T01:18:58.579Z,10.8
2018-09-17T01:19:48.374Z,10.8
2018-09-17T01:20:38.464Z,10.7
2018-09-17T01:21:28.702Z,10.7
2018-09-17T01:22:18.857Z,10.7
2018-09-17T01:23:08.943Z,10.7
2018-09-17T01:23:58.975Z,10.7
2018-09-17T01:24:49.045Z,10.6
2018-09-17T01:25:39.069Z,10.6
2018-09-17T01:26:28.861Z,10.6
2018-09-17T01:27:18.921Z,10.6
2018-09-17T01:28:09.297Z,10.6
2018-09-17T01:28:59.353Z,10.6
2018-09-17T01:29:49.397Z,10.6
2018-09-17T01:30:39.980Z,10.6
2018-09-17T01:31:29.529Z,10.5
2018-09-17T01:32:19.271Z,10.6
2018-09-17T01:33:09.649Z,10.5
2018-09-17T01:34:00.007Z,10.5
2018-09-17T01:34:49.786Z,10.5
2018-09-17T01:35:39.545Z,10.4
2018-09-17T01:36:29.604Z,10.5
2018-09-17T01:37:19.462Z,10.4
2018-09-17T01:38:09.734Z,10.4
2018-09-17T01:39:00.080Z,10.4
2018-09-17T01:39:49.881Z,10.4
2018-09-17T01:40:40.218Z,10.4
2018-09-17T01:41:29.995Z,10.4
2018-09-17T01:42:20.314Z,10.4
2018-09-17T01:43:10.383Z,10.4
2018-09-17T01:44:00.492Z,10.4
2018-09-17T01:44:50.248Z,10.4
2018-09-17T01:45:40.295Z,10.4
2018-09-17T01:46:30.358Z,10.4
2018-09-17T01:47:20.440Z,10.4
2018-09-17T01:48:10.523Z,10.4
2018-09-17T01:49:00.860Z,10.4
2018-09-17T01:49:50.900Z,10.4
2018-09-17T01:50:40.979Z,10.4
2018-09-17T01:51:31.018Z,10.4
2018-09-17T01:52:21.077Z,10.4
2018-09-17T01:53:10.863Z,10.4
2018-09-17T01:54:01.205Z,10.4
2018-09-17T01:54:51.297Z,10.4
2018-09-17T01:55:40.765Z,10.4
2018-09-17T01:56:31.409Z,10.4
2018-09-17T01:57:21.180Z,10.4
2018-09-17T01:58:10.961Z,10.4
2018-09-17T01:59:01.000Z,10.4
2018-09-17T01:59:51.357Z,10.4
2018-09-17T02:00:41.411Z,10.4
2018-09-17T02:01:31.489Z,10.4
2018-09-17T02:02:21.841Z,10.4
2018-09-17T02:03:11.925Z,10.4
2018-09-17T02:04:01.973Z,10.4
2018-09-17T02:04:52.030Z,10.4
2018-09-17T02:05:42.089Z,10.4
2018-09-17T02:06:32.132Z,10.4
2018-09-17T02:07:21.666Z,10.4
2018-09-17T02:08:12.524Z,10.4
2018-09-17T02:09:02.442Z,10.4
2018-09-17T02:09:52.499Z,10.4
2018-09-17T02:10:41.894Z,10.4
2018-09-17T02:11:32.514Z,10.4
2018-09-17T02:12:22.281Z,10.4
2018-09-17T02:13:12.383Z,10.4
2018-09-17T02:14:02.141Z,10.3
2018-09-17T02:14:52.149Z,10.4
2018-09-17T02:15:42.561Z,10.3
2018-09-17T02:16:32.888Z,10.3
2018-09-17T02:17:22.970Z,10.3
2018-09-17T02:18:12.739Z,10.3
2018-09-17T02:19:03.075Z,10.3
2018-09-17T02:19:53.438Z,10.3
2018-09-17T02:20:42.925Z,10.3
2018-09-17T02:21:32.983Z,10.3
2018-09-17T02:22:23.321Z,10.3
2018-09-17T02:23:13.109Z,10.3
2018-09-17T02:24:02.972Z,10.3
2018-09-17T02:24:53.521Z,10.3
2018-09-17T02:25:43.567Z,10.3
2018-09-17T02:26:33.653Z,10.3
2018-09-17T02:27:23.693Z,10.3
2018-09-17T02:28:13.765Z,10.3
2018-09-17T02:29:03.782Z,10.3
2018-09-17T02:29:53.898Z,10.3
2018-09-17T02:30:43.097Z,10.3
2018-09-17T02:31:33.776Z,10.3
2018-09-17T02:32:23.810Z,10.3
2018-09-17T02:33:14.143Z,10.3
2018-09-17T02:34:04.446Z,10.3
2018-09-17T02:34:54.268Z,10.3
2018-09-17T02:35:43.748Z,10.3
2018-09-17T02:36:34.120Z,10.3
2018-09-17T02:37:24.165Z,10.3
2018-09-17T02:38:14.220Z,10.3
2018-09-17T02:39:04.558Z,10.3
2018-09-17T02:39:54.660Z,10.3
2018-09-17T02:40:44.690Z,10.3
2018-09-17T02:41:34.477Z,10.3
2018-09-17T02:42:24.839Z,10.3
2018-09-17T02:43:14.315Z,10.3
2018-09-17T02:44:04.665Z,10.3
2018-09-17T02:44:54.777Z,10.3
2018-09-17T02:45:44.797Z,10.3
2018-09-17T02:46:34.842Z,10.4
2018-09-17T02:47:24.921Z,10.3
2018-09-17T02:48:15.502Z,10.4
2018-09-17T02:49:05.074Z,10.4
2018-09-17T02:49:55.436Z,10.4
2018-09-17T02:50:45.459Z,10.4
2018-09-17T02:51:35.227Z,10.3
2018-09-17T02:52:25.571Z,10.4
2018-09-17T02:53:15.642Z,10.3
2018-09-17T02:54:05.697Z,10.4
2018-09-17T02:54:55.754Z,10.4
2018-09-17T02:55:45.536Z,10.4
2018-09-17T02:56:35.881Z,10.4
2018-09-17T02:57:25.950Z,10.4
2018-09-17T02:58:16.031Z,10.4
2018-09-17T02:59:06.557Z,10.4
2018-09-17T02:59:56.144Z,10.4
2018-09-17T03:00:45.919Z,10.4
2018-09-17T03:01:36.349Z,10.4
2018-09-17T03:02:26.304Z,10.4
2018-09-17T03:03:16.091Z,10.4
2018-09-17T03:04:06.469Z,10.4
2018-09-17T03:04:56.221Z,10.4
2018-09-17T03:05:46.571Z,10.3
2018-09-17T03:06:36.631Z,10.4
2018-09-17T03:07:26.687Z,10.4
2018-09-17T03:08:16.797Z,10.4
2018-09-17T03:09:06.525Z,10.4
2018-09-17T03:09:56.891Z,10.3
2018-09-17T03:10:46.650Z,10.3
2018-09-17T03:11:37.009Z,10.3
2018-09-17T03:12:27.084Z,10.4
2018-09-17T03:13:17.115Z,10.3
2018-09-17T03:14:07.190Z,10.3
2018-09-17T03:14:57.301Z,10.3
2018-09-17T03:15:47.335Z,10.3
2018-09-17T03:16:37.373Z,10.3
2018-09-17T03:17:27.488Z,10.3
2018-09-17T03:18:17.505Z,10.3
2018-09-17T03:19:07.552Z,10.3
2018-09-17T03:19:57.105Z,10.3
2018-09-17T03:20:47.672Z,10.3
2018-09-17T03:21:37.505Z,10.3
2018-09-17T03:22:28.072Z,10.3
2018-09-17T03:23:17.892Z,10.3
2018-09-17T03:24:07.923Z,10.4
2018-09-17T03:24:58.024Z,10.4
2018-09-17T03:25:47.835Z,10.4
2018-09-17T03:26:38.124Z,10.4
2018-09-17T03:27:28.165Z,10.4
2018-09-17T03:28:18.255Z,10.4
2018-09-17T03:29:08.313Z,10.4
2018-09-17T03:29:58.369Z,10.4
2018-09-17T03:30:48.137Z,10.4
2018-09-17T03:31:38.494Z,10.4
2018-09-17T03:32:28.269Z,10.5
2018-09-17T03:33:18.615Z,10.5
2018-09-17T03:34:08.694Z,10.5
2018-09-17T03:34:58.179Z,10.5
2018-09-17T03:35:48.547Z,10.5
2018-09-17T03:36:38.871Z,10.5
2018-09-17T03:37:28.952Z,10.6
2018-09-17T03:38:18.691Z,10.6
2018-09-17T03:39:09.041Z,10.6
2018-09-17T03:39:59.113Z,10.6
2018-09-17T03:40:48.902Z,10.6
2018-09-17T03:41:39.234Z,10.6
2018-09-17T03:42:29.101Z,10.6
2018-09-17T03:43:19.366Z,10.6
2018-09-17T03:44:09.489Z,10.6
2018-09-17T03:44:59.485Z,10.6
2018-09-17T03:45:48.989Z,10.6
2018-09-17T03:46:40.163Z,10.6
2018-09-17T03:47:29.726Z,10.6
2018-09-17T03:48:19.820Z,10.6
2018-09-17T03:49:10.023Z,10.6
2018-09-17T03:49:59.600Z,10.6
2018-09-17T03:50:49.637Z,10.6
2018-09-17T03:51:40.014Z,10.7
2018-09-17T03:52:30.061Z,10.6
2018-09-17T05:25:22.543Z,17.2
2018-09-17T05:26:11.817Z,17.5
2018-09-17T05:27:02.161Z,17.8
2018-09-17T05:27:51.926Z,18
2018-09-17T05:28:42.010Z,18.3
2018-09-17T05:29:32.360Z,18.5
2018-09-17T05:30:22.655Z,18.8
2018-09-17T05:31:12.468Z,19.1
2018-09-17T05:32:02.522Z,19.3
2018-09-17T05:32:52.315Z,19.6
2018-09-17T05:33:42.085Z,19.9
2018-09-17T05:34:31.928Z,20.2
2018-09-17T05:35:22.762Z,20.4
2018-09-17T05:36:12.829Z,20.8
2018-09-17T05:37:02.936Z,21.1
2018-09-17T05:37:52.952Z,21.4
2018-09-17T05:38:42.986Z,21.7
2018-09-17T05:39:32.941Z,22
2018-09-17T05:40:23.134Z,22.4
2018-09-17T05:41:12.917Z,22.7
2018-09-17T05:42:03.269Z,23.1
2018-09-17T05:42:53.335Z,23.4
2018-09-17T05:43:43.406Z,23.8
2018-09-17T05:44:34.377Z,24.1
2018-09-17T05:45:23.580Z,24.6
2018-09-17T05:46:13.597Z,24.9
2018-09-17T05:47:03.709Z,25.3
2018-09-17T05:47:53.416Z,25.8
2018-09-17T05:48:43.763Z,26.1
2018-09-17T05:49:33.562Z,26.6
2018-09-17T05:50:23.940Z,27
2018-09-17T05:51:13.699Z,27.4
2018-09-17T05:52:53.919Z,28.2
2018-09-17T05:53:44.328Z,28.6
2018-09-17T05:54:33.952Z,29
2018-09-17T05:55:24.289Z,29.4
2018-09-17T05:56:14.394Z,29.7
2018-09-17T05:57:04.407Z,30.1
2018-09-17T05:57:54.184Z,30.3
2018-09-17T05:58:44.524Z,30.6
2018-09-17T05:59:34.478Z,30.8
2018-09-17T06:00:24.646Z,31.1
2018-09-17T06:01:14.400Z,31.3
2018-09-17T06:02:04.779Z,31.6
2018-09-17T06:02:54.829Z,31.9
2018-09-17T06:03:44.912Z,32.2
2018-09-17T06:04:35.051Z,32.6
2018-09-17T06:05:25.159Z,32.9
2018-09-17T06:06:15.032Z,33.2
2018-09-17T06:07:05.536Z,33.5
2018-09-17T06:07:55.209Z,33.8
2018-09-17T06:08:45.279Z,34.2
2018-09-17T06:09:35.498Z,34.5
2018-09-17T06:10:25.418Z,34.9
2018-09-17T06:11:15.511Z,35.3
2018-09-17T06:12:05.554Z,35.6
2018-09-17T06:12:55.341Z,36
2018-09-17T06:13:45.867Z,36.4
2018-09-17T06:14:36.072Z,36.8
2018-09-17T06:15:25.764Z,37.1
2018-09-17T06:16:16.136Z,37.5
2018-09-17T06:17:05.903Z,37.9
2018-09-17T06:17:55.489Z,38.3
2018-09-17T06:18:45.443Z,38.6
2018-09-17T06:19:35.529Z,38.8
2018-09-17T06:20:25.873Z,39
2018-09-17T06:21:15.926Z,39.1
2018-09-17T06:22:06.268Z,39.1
2018-09-17T06:22:56.070Z,39
2018-09-17T06:23:46.390Z,39
2018-09-17T06:24:36.201Z,38.9
2018-09-17T06:25:26.569Z,38.9
2018-09-17T06:26:16.310Z,38.9
2018-09-17T06:27:06.881Z,38.8
2018-09-17T06:27:56.800Z,38.7
2018-09-17T06:28:47.041Z,38.6
2018-09-17T06:29:36.864Z,38.4
2018-09-17T06:30:26.928Z,38.3
2018-09-17T06:31:16.998Z,38.1
2018-09-17T06:32:06.992Z,38
2018-09-17T06:32:56.549Z,37.9
2018-09-17T06:33:47.150Z,37.8
2018-09-17T06:34:37.228Z,37.8
2018-09-17T06:35:27.310Z,37.8
2018-09-17T06:36:17.553Z,37.9
2018-09-17T06:37:07.430Z,38
2018-09-17T06:37:56.891Z,38.1
2018-09-17T06:38:47.527Z,38.2
2018-09-17T06:39:37.300Z,38.3
2018-09-17T06:40:27.670Z,38.3
2018-09-17T06:41:17.757Z,38.3
2018-09-17T06:42:07.736Z,38.3
2018-09-17T06:42:57.944Z,38.3
2018-09-17T06:43:47.887Z,38.3
2018-09-17T06:44:37.961Z,38.3
2018-09-17T06:45:28.033Z,38.4
2018-09-17T06:46:18.102Z,38.7
2018-09-17T06:47:07.586Z,39.1
2018-09-17T06:47:58.528Z,39.5
2018-09-17T06:48:48.012Z,40.1
2018-09-17T06:49:38.350Z,40.6
2018-09-17T06:50:28.429Z,41
2018-09-17T06:51:18.396Z,41.3
2018-09-17T06:52:08.577Z,41.4
2018-09-17T06:52:58.639Z,41.5
2018-09-17T06:53:49.008Z,41.6
2018-09-17T06:54:38.433Z,41.6
2018-09-17T06:55:28.780Z,41.6
2018-09-17T06:56:18.829Z,41.6
2018-09-17T06:57:08.888Z,41.5
2018-09-17T06:57:58.945Z,41.6
2018-09-17T06:58:49.025Z,41.7
2018-09-17T06:59:38.795Z,41.9
2018-09-17T07:00:29.217Z,42.1
2018-09-17T07:01:19.295Z,42.3
2018-09-17T07:02:09.012Z,42.4
2018-09-17T07:02:59.352Z,42.6
2018-09-17T07:03:49.397Z,42.6
2018-09-17T07:04:39.446Z,42.6
2018-09-17T07:05:29.831Z,42.6
2018-09-17T07:06:19.894Z,42.6
2018-09-17T07:07:09.379Z,42.7
2018-09-17T07:07:59.421Z,42.8
2018-09-17T07:08:49.767Z,42.9
2018-09-17T07:09:39.559Z,43
2018-09-17T07:10:29.622Z,43.3
2018-09-17T07:11:19.669Z,43.4
2018-09-17T07:12:10.041Z,43.6
2018-09-17T07:13:00.084Z,43.8
2018-09-17T07:13:50.152Z,43.9
2018-09-17T07:14:39.934Z,44.3
2018-09-17T07:15:30.082Z,44.7
2018-09-17T07:16:20.409Z,45.3
2018-09-17T07:17:10.392Z,46
2018-09-17T07:17:59.990Z,46.8
2018-09-17T07:18:50.251Z,47.6
2018-09-17T07:19:40.595Z,48.1
2018-09-17T07:20:30.631Z,49.1
2018-09-17T07:21:20.438Z,50.3
2018-09-17T07:22:10.779Z,49.5
2018-09-17T07:23:00.840Z,48.3
2018-09-17T07:23:51.189Z,44.9
2018-09-17T07:24:40.953Z,41.9
2018-09-17T07:25:31.040Z,40.3
2018-09-17T07:26:21.083Z,39.4
2018-09-17T07:27:11.174Z,38.9
2018-09-17T07:28:00.960Z,39
2018-09-17T07:28:51.278Z,39.5
2018-09-17T07:29:41.067Z,40.3
2018-09-17T07:30:31.445Z,41.1
2018-09-17T07:31:21.490Z,41.9
2018-09-17T07:32:11.525Z,42.7
2018-09-17T07:33:01.317Z,43.5
2018-09-17T07:33:51.663Z,44.4
2018-09-17T07:34:41.710Z,45.4
2018-09-17T07:35:31.767Z,46.2
2018-09-17T07:36:22.536Z,46.9
2018-09-17T07:37:11.905Z,47.8
2018-09-17T07:38:01.408Z,48.6
2018-09-17T07:38:52.036Z,50.9
2018-09-17T07:39:41.809Z,51.1
2018-09-17T07:40:32.201Z,50.4
2018-09-17T07:41:22.198Z,49.1
2018-09-17T07:42:12.423Z,47.2
2018-09-17T07:43:02.338Z,45.8
2018-09-17T07:43:52.733Z,45.1
2018-09-17T07:44:42.465Z,44.5
2018-09-17T07:45:32.235Z,44.3
2018-09-17T07:46:22.330Z,44.4
2018-09-17T07:47:12.647Z,45.1
2018-09-17T07:48:02.730Z,45.9
2018-09-17T07:48:53.035Z,47
2018-09-17T07:49:42.564Z,48
2018-09-17T07:50:32.969Z,50.3
2018-09-17T07:51:22.427Z,51.8
2018-09-17T07:52:12.747Z,52
2018-09-17T07:53:03.006Z,51.8
2018-09-17T07:53:52.886Z,50.6
2018-09-17T07:54:42.927Z,49.1
2018-09-17T07:55:33.329Z,48
2018-09-17T07:56:23.330Z,47.7
2018-09-17T07:57:13.406Z,48
2018-09-17T07:58:03.498Z,48.5
2018-09-17T07:58:53.939Z,48.8
2018-09-17T07:59:43.593Z,48.8
2018-09-17T08:00:33.391Z,48.6
2018-09-17T08:01:23.734Z,48.3
2018-09-17T08:02:13.794Z,48
2018-09-17T08:03:03.851Z,47.9
2018-09-17T08:03:54.016Z,47.9
2018-09-17T08:04:44.003Z,47.9
2018-09-17T08:05:33.219Z,47.9
2018-09-17T08:06:23.921Z,47.9
2018-09-17T08:07:14.181Z,47.9
2018-09-17T08:08:04.234Z,47.8
2018-09-17T08:08:54.578Z,47.7
2018-09-17T08:09:44.360Z,47.6
2018-09-17T08:10:34.417Z,47.6
2018-09-17T08:11:24.198Z,47.6
2018-09-17T08:12:14.558Z,47.7
2018-09-17T08:13:05.130Z,47.8
2018-09-17T08:13:54.400Z,47.9
2018-09-17T08:14:44.775Z,48
2018-09-17T08:15:34.802Z,48.1
2018-09-17T08:16:24.892Z,48.3
2018-09-17T08:17:14.946Z,48.4
2018-09-17T08:18:05.012Z,48.5
2018-09-17T08:18:55.102Z,48.6
2018-09-17T08:19:45.091Z,48.8
2018-09-17T08:20:34.913Z,48.9
2018-09-17T08:21:25.242Z,48.9
2018-09-17T08:22:15.023Z,49
2018-09-17T08:23:05.082Z,49.1
2018-09-17T08:23:55.444Z,49.1
2018-09-17T08:24:45.475Z,49.1
2018-09-17T08:25:35.555Z,49.1
2018-09-17T08:26:25.335Z,49.2
2018-09-17T08:27:15.400Z,49.2
2018-09-17T08:28:05.734Z,49.3
2018-09-17T08:28:55.827Z,49.4
2018-09-17T08:29:45.471Z,49.5
2018-09-17T08:30:35.688Z,49.6
2018-09-17T08:31:25.625Z,49.7
2018-09-17T08:32:16.055Z,49.8
2018-09-17T08:33:05.847Z,49.9
2018-09-17T08:33:55.945Z,50
2018-09-17T08:34:46.304Z,50.1
2018-09-17T08:35:36.334Z,50.1
2018-09-17T08:36:26.406Z,50.1
2018-09-17T08:37:16.167Z,50.2
2018-09-17T08:38:06.407Z,50.3
2018-09-17T08:38:56.314Z,50.4
2018-09-17T08:39:46.715Z,50.5
2018-09-17T08:40:36.429Z,50.6
2018-09-17T08:41:26.966Z,50.8
2018-09-17T08:42:16.871Z,50.9
2018-09-17T08:43:06.657Z,51
2018-09-17T08:43:56.993Z,51.1
2018-09-17T08:44:47.280Z,51.2
2018-09-17T08:45:36.645Z,51.3
2018-09-17T08:46:27.455Z,51.3
2018-09-17T08:47:17.220Z,51.3
2018-09-17T08:48:07.266Z,51.4
2018-09-17T08:48:57.323Z,51.4
2018-09-17T08:49:47.390Z,51.5
2018-09-17T08:50:37.188Z,51.6
2018-09-17T08:51:27.523Z,51.8
2018-09-17T08:53:07.614Z,52.1
2018-09-17T08:53:57.868Z,52.3
2018-09-17T08:57:17.422Z,52.3
2018-09-17T08:58:08.339Z,52.3
2018-09-17T08:58:58.092Z,52.2
2018-09-17T08:59:48.210Z,52.1
2018-09-17T09:00:37.955Z,52.1
2018-09-17T09:01:28.287Z,52.2
2018-09-17T09:02:18.345Z,52.2
2018-09-17T09:03:08.417Z,52.2
2018-09-17T09:03:58.926Z,52.2
2018-09-17T09:04:48.541Z,52.3
2018-09-17T09:05:38.705Z,52.3
2018-09-17T09:07:18.461Z,52.5
2018-09-17T09:08:08.564Z,52.6
2018-09-17T09:08:58.385Z,52.8
2018-09-17T09:09:48.887Z,53
2018-09-17T09:10:38.989Z,53.3
2018-09-17T09:11:28.800Z,53.5
2018-09-17T09:12:19.105Z,53.8
2018-09-17T09:13:09.172Z,53.9
2018-09-17T09:13:58.972Z,54.1
2018-09-17T09:14:48.579Z,54.3
2018-09-17T09:15:39.366Z,54.4
2018-09-17T09:16:29.427Z,54.5
2018-09-17T09:17:19.504Z,54.6
2018-09-17T09:18:09.551Z,54.6
2018-09-17T09:18:59.632Z,54.8
2018-09-17T09:19:49.434Z,54.9
2018-09-17T09:20:39.179Z,55
2018-09-17T09:21:29.491Z,55.2
2018-09-17T09:22:19.591Z,55.3
2018-09-17T09:23:09.951Z,55.4
2018-09-17T09:40:40.789Z,56.5
2018-09-17T09:41:30.845Z,56.6
2018-09-17T09:42:20.907Z,56.8
2018-09-17T09:43:10.700Z,57
2018-09-17T09:44:01.017Z,57.2
2018-09-17T09:44:51.102Z,57.4
2018-09-17T09:45:41.514Z,57.6
2018-09-17T09:46:31.154Z,57.7
2018-09-17T09:49:01.405Z,57.8
2018-09-17T09:49:51.454Z,57.8
2018-09-17T09:50:41.541Z,57.8
2018-09-17T09:54:01.496Z,57.8
2018-09-17T09:54:51.829Z,57.9
2018-09-17T09:55:42.167Z,58.1
2018-09-17T09:56:32.026Z,58.3
2018-09-17T09:57:22.034Z,58.4
2018-09-17T09:58:12.106Z,58.5
2018-09-17T09:59:52.227Z,58.6
2018-09-17T10:00:42.296Z,58.6
2018-09-17T10:01:32.079Z,58.7
2018-09-17T10:02:22.451Z,58.7
2018-09-17T10:03:12.178Z,58.8
2018-09-17T10:04:02.557Z,58.8
2018-09-17T10:04:52.323Z,58.8
2018-09-17T10:05:42.199Z,58.8
2018-09-17T10:06:32.986Z,58.8
2018-09-17T10:07:22.529Z,58.8
2018-09-17T10:08:12.854Z,58.8
2018-09-17T10:09:02.643Z,58.8
2018-09-17T10:09:52.974Z,58.9
2018-09-17T10:10:43.038Z,58.9
2018-09-17T10:11:32.912Z,58.9
2018-09-17T10:12:23.158Z,58.9
2018-09-17T10:13:13.228Z,58.9
2018-09-17T10:14:02.810Z,59.1
2018-09-17T10:14:53.086Z,59.2
2018-09-17T10:15:43.445Z,59.4
2018-09-17T10:16:33.490Z,59.6
2018-09-17T10:17:23.552Z,59.8
2018-09-17T10:18:13.344Z,59.9
2018-09-17T10:19:03.388Z,60
2018-09-17T10:19:53.493Z,60.1
2018-09-17T10:20:43.800Z,60.3
2018-09-17T10:21:33.880Z,60.4
2018-09-17T10:22:23.947Z,60.6
2018-09-17T10:23:13.993Z,60.7
2018-09-17T10:24:04.069Z,60.8
2018-09-17T10:24:54.119Z,60.9
2018-09-17T10:25:44.177Z,60.9
2018-09-17T10:26:34.252Z,60.9
2018-09-17T10:27:24.322Z,60.8
2018-09-17T10:28:14.635Z,60.3
2018-09-17T10:29:04.169Z,59.9
2018-09-17T10:29:54.970Z,59.9
2018-09-17T10:30:44.284Z,60
2018-09-17T10:31:34.644Z,59.9
2018-09-17T10:32:24.406Z,59.4
2018-09-17T10:33:14.199Z,58.6
2018-09-17T10:34:04.829Z,57.6
2018-09-17T10:34:54.883Z,56.7
2018-09-17T10:35:44.946Z,55.9
2018-09-17T10:36:34.431Z,55.4
2018-09-17T10:37:25.343Z,55.3
2018-09-17T10:38:15.131Z,55.3
2018-09-17T10:39:05.240Z,55.5
2018-09-17T10:39:55.262Z,56.1
2018-09-17T10:40:45.342Z,56.7
2018-09-17T10:41:35.406Z,57.1
2018-09-17T10:42:25.451Z,57.6
2018-09-17T10:43:15.239Z,57.8
2018-09-17T10:44:05.308Z,58
2018-09-17T10:44:55.378Z,58.2
2018-09-17T10:45:45.438Z,58.4
2018-09-17T10:47:25.833Z,58.8
2018-09-17T10:48:15.916Z,58.9
2018-09-17T10:49:06.264Z,59.1
2018-09-17T10:49:55.772Z,59.3
2018-09-17T10:50:45.813Z,59.6
2018-09-17T10:51:36.151Z,59.8
2018-09-17T10:52:25.938Z,60
2018-09-17T10:53:16.283Z,60.2
2018-09-17T10:54:06.383Z,60.4
2018-09-17T10:54:56.396Z,60.7
2018-09-17T10:55:46.188Z,60.9
2018-09-17T10:56:36.563Z,61.1
2018-09-17T10:57:27.056Z,61.3
2018-09-17T10:58:16.385Z,61.3
2018-09-17T10:59:06.732Z,61
2018-09-17T10:59:56.546Z,60.6
2018-09-17T11:00:46.845Z,60.5
2018-09-17T11:01:36.340Z,60.6
2018-09-17T11:02:26.667Z,60.8
2018-09-17T11:03:17.036Z,60.9
2018-09-17T11:04:06.827Z,61.1
2018-09-17T11:04:56.927Z,61.3
2018-09-17T11:05:46.971Z,61.3
2018-09-17T11:06:37.028Z,61.4
2018-09-17T11:07:27.298Z,61.5
2018-09-17T11:08:17.010Z,61.4
2018-09-17T11:09:07.496Z,60.9
2018-09-17T11:09:57.548Z,60.4
2018-09-17T11:10:47.614Z,60.3
2018-09-17T11:11:37.701Z,60.6
2018-09-17T11:12:27.750Z,61.1
2018-09-17T11:13:17.849Z,61.4
2018-09-17T11:14:07.870Z,61.6
2018-09-17T11:14:57.667Z,61.8
2018-09-17T11:15:48.001Z,61.7
2018-09-17T11:16:38.064Z,61.2
2018-09-17T11:17:28.067Z,60.9
2018-09-17T11:18:18.249Z,61
2018-09-17T11:19:08.289Z,61.3
2018-09-17T11:19:58.334Z,61.7
2018-09-17T11:20:48.136Z,62
2018-09-17T11:21:38.457Z,62.1
2018-09-17T11:22:28.250Z,62.1
2018-09-17T11:23:18.741Z,62
2018-09-17T11:24:08.634Z,61.6
2018-09-17T11:24:58.453Z,61.3
2018-09-17T11:25:48.461Z,61.2
2018-09-17T11:26:38.828Z,61.2
2018-09-17T11:27:28.600Z,61
2018-09-17T11:28:18.921Z,60.4
2018-09-17T11:29:08.720Z,59.6
2018-09-17T11:29:58.809Z,58.9
2018-09-17T11:30:49.143Z,58.8
2018-09-17T11:31:38.917Z,59
2018-09-17T11:32:29.368Z,59.1
2018-09-17T11:34:59.188Z,56.7
2018-09-17T11:35:49.523Z,55.7
2018-09-17T11:36:39.575Z,54.9
2018-09-17T11:37:29.378Z,54.3
2018-09-17T11:38:19.776Z,53.9
2018-09-17T11:39:09.773Z,53.6
2018-09-17T11:39:59.827Z,53.1
2018-09-17T11:40:49.914Z,52.8
2018-09-17T11:42:30.035Z,51.9
2018-09-17T11:43:20.137Z,51.1
2018-09-17T11:44:10.155Z,50.3
2018-09-17T11:45:00.232Z,49.6
2018-09-17T11:45:50.272Z,49.1
2018-09-17T11:46:40.340Z,48.8
2018-09-17T11:47:30.127Z,48.5
2018-09-17T11:48:20.561Z,48.4
2018-09-17T11:49:10.239Z,48.6
2018-09-17T11:50:00.612Z,48.8
2018-09-17T11:50:50.660Z,49.3
2018-09-17T11:51:40.722Z,49.8
2018-09-17T11:52:30.780Z,50.4
2018-09-17T11:53:20.847Z,51
2018-09-17T11:54:10.725Z,51.6
2018-09-17T11:55:00.985Z,52.2
2018-09-17T11:55:51.379Z,52.6
2018-09-17T11:56:40.817Z,52.8
2018-09-17T11:57:31.180Z,52.8
2018-09-17T11:58:21.227Z,52.7
2018-09-17T12:00:01.355Z,52.1
2018-09-17T12:00:51.474Z,51.8
2018-09-17T12:01:41.921Z,51.4
2018-09-17T12:02:31.554Z,51.1
2018-09-17T12:03:21.619Z,50.8
2018-09-17T12:04:11.704Z,50.4
2018-09-17T12:05:01.742Z,50.1
2018-09-17T12:05:51.524Z,49.7
2018-09-17T12:06:41.867Z,49.4
2018-09-17T12:07:32.035Z,49.3
2018-09-17T12:08:22.009Z,49.3
2018-09-17T12:09:12.588Z,49.6
2018-09-17T12:10:02.124Z,50.1
2018-09-17T12:10:51.955Z,50.4
2018-09-17T12:11:42.248Z,50.4
2018-09-17T12:12:32.330Z,50.4
2018-09-17T12:13:22.373Z,50.3
2018-09-17T12:14:12.443Z,50.1
2018-09-17T12:15:02.512Z,50
2018-09-17T12:15:51.992Z,50.2
2018-09-17T12:16:42.626Z,50.6
2018-09-17T12:17:32.688Z,51.3
2018-09-17T12:18:22.473Z,52.1
2018-09-17T12:19:12.818Z,53
2018-09-17T12:20:02.893Z,53.9
2018-09-17T12:20:53.192Z,54.8
2018-09-17T12:21:43.062Z,55.4
2018-09-17T12:22:33.075Z,57.3
2018-09-17T12:23:23.140Z,57.6
2018-09-17T12:24:13.200Z,57.3
2018-09-17T12:25:03.268Z,55.8
2018-09-17T12:25:53.043Z,53.6
2018-09-17T12:26:43.108Z,52.1
2018-09-17T12:27:33.457Z,51.3
2018-09-17T12:28:23.531Z,51
2018-09-17T12:29:13.581Z,51.2
2018-09-17T12:30:03.643Z,51.8
2018-09-17T12:30:53.707Z,52.4
2018-09-17T12:31:43.765Z,52.9
2018-09-17T12:32:33.844Z,53.4
2018-09-17T12:33:23.906Z,54.1
2018-09-17T12:34:13.973Z,54.8
2018-09-17T12:35:04.021Z,56.9
2018-09-17T12:35:54.092Z,58.3
2018-09-17T12:36:44.173Z,58.6
2018-09-17T12:37:34.239Z,58.4
2018-09-17T12:38:24.281Z,57.4
2018-09-17T12:39:14.338Z,56.3
2018-09-17T12:40:04.411Z,55.4
2018-09-17T12:40:54.476Z,55.3
2018-09-17T12:41:44.528Z,55.6
2018-09-17T12:42:34.597Z,56.1
2018-09-17T12:43:24.910Z,56.4
2018-09-17T12:44:14.733Z,56.6
2018-09-17T12:45:04.819Z,56.7
2018-09-17T12:45:55.185Z,56.6
2018-09-17T12:46:44.913Z,56.6
2018-09-17T12:47:34.713Z,56.8
2018-09-17T12:48:25.110Z,56.9
2018-09-17T12:49:15.114Z,57.1
2018-09-17T12:50:05.185Z,57.2
2018-09-17T12:50:55.307Z,57.1
2018-09-17T12:51:45.360Z,56.9
2018-09-17T12:52:35.359Z,56.8
2018-09-17T12:53:25.674Z,56.3
2018-09-17T12:54:15.278Z,55.9
2018-09-17T12:55:05.547Z,55.7
2018-09-17T12:55:55.612Z,55.6
2018-09-17T12:56:45.734Z,55.5
2018-09-17T12:57:35.717Z,55.1
2018-09-17T12:58:25.834Z,54.4
2018-09-17T12:59:15.592Z,53.8
2018-09-17T13:00:05.937Z,53.1
2018-09-17T13:00:55.831Z,52.6
2018-09-17T13:02:36.429Z,51.1
2018-09-17T13:03:26.678Z,50.3
2018-09-17T13:04:16.271Z,49.7
2018-09-17T13:05:06.316Z,49.4
2018-09-17T13:05:56.380Z,49.5
2018-09-17T13:06:46.496Z,49.9
2018-09-17T13:07:36.466Z,50.6
2018-09-17T13:08:26.587Z,51.3
2018-09-17T13:09:16.629Z,52.1
2018-09-17T13:10:06.706Z,52.8
2018-09-17T13:10:56.779Z,53.5
2018-09-17T13:11:46.822Z,54.3
2018-09-17T13:12:36.888Z,54.9
2018-09-17T13:13:26.955Z,56.7
2018-09-17T13:14:17.091Z,57.6
2018-09-17T13:15:07.092Z,57.5
2018-09-17T13:15:57.148Z,56.9
2018-09-17T13:16:46.933Z,55.7
2018-09-17T13:17:37.293Z,54.6
2018-09-17T13:18:27.386Z,54.1
2018-09-17T13:19:17.115Z,54.4
2018-09-17T13:20:06.906Z,54.9
2018-09-17T13:20:57.521Z,55.3
2018-09-17T13:21:47.352Z,55.4
2018-09-17T13:22:37.645Z,55.3
2018-09-17T13:23:27.712Z,55
2018-09-17T13:24:17.747Z,54.8
2018-09-17T13:25:08.413Z,54.6
2018-09-17T13:25:57.629Z,54.6
2018-09-17T13:26:47.959Z,54.6
2018-09-17T13:27:37.753Z,54.5
2018-09-17T13:28:28.109Z,54.4
2018-09-17T13:29:18.176Z,54.3
2018-09-17T13:30:08.495Z,54.2
2018-09-17T13:30:58.282Z,54.1